createdAt,value
2022-12-13T00:02:36.355Z,12.30
2022-12-13T00:11:06.595Z,12.60
2022-12-13T00:19:29.419Z,12.10
2022-12-13T00:27:52.398Z,14.60
2022-12-13T00:36:16.352Z,12.30
2022-12-13T00:44:39.226Z,16.20
2022-12-13T00:53:02.409Z,13.10
2022-12-13T01:01:28.422Z,13.00
2022-12-13T01:09:51.328Z,12.10
2022-12-13T01:18:18.331Z,12.20
2022-12-13T01:26:41.437Z,9.40
2022-12-13T01:35:04.462Z,12.80
2022-12-13T01:43:36.587Z,11.20
2022-12-13T01:52:05.305Z,12.40
2022-12-13T02:00:28.695Z,15.10
2022-12-13T02:08:51.495Z,13.10
2022-12-13T02:17:44.606Z,11.70
2022-12-13T02:26:17.437Z,12.30
2022-12-13T02:34:48.907Z,12.00
2022-12-13T02:43:24.367Z,14.30
2022-12-13T02:51:48.982Z,14.20
2022-12-13T03:00:23.484Z,12.70
2022-12-13T03:09:07.735Z,13.80
2022-12-13T03:17:39.021Z,13.30
2022-12-13T03:26:11.068Z,16.50
2022-12-13T03:34:43.650Z,12.50
2022-12-13T03:43:08.314Z,16.60
2022-12-13T03:51:31.278Z,19.30
2022-12-13T03:59:54.139Z,12.50
2022-12-13T04:08:21.782Z,14.50
2022-12-13T04:16:46.039Z,16.00
2022-12-13T04:25:09.247Z,17.70
2022-12-13T04:33:33.451Z,17.70
2022-12-13T04:41:56.506Z,22.30
2022-12-13T04:50:19.361Z,17.90
2022-12-13T04:58:42.233Z,22.50
2022-12-13T05:07:05.042Z,22.30
2022-12-13T05:15:28.248Z,18.70
2022-12-13T05:23:51.081Z,18.90
2022-12-13T05:32:13.994Z,20.70
2022-12-13T05:40:36.921Z,19.40
2022-12-13T05:48:59.746Z,18.80
2022-12-13T05:57:23.436Z,20.90
2022-12-13T06:05:46.908Z,22.40
2022-12-13T06:14:22.456Z,14.50
2022-12-13T06:22:46.294Z,22.10
2022-12-13T06:31:09.173Z,16.80
2022-12-13T06:39:33.434Z,16.90
2022-12-13T06:47:57.467Z,22.00
2022-12-13T06:56:20.290Z,19.10
2022-12-13T07:04:43.210Z,19.20
2022-12-13T07:13:06.414Z,17.80
2022-12-13T07:21:30.483Z,18.50
2022-12-13T07:29:53.373Z,21.40
2022-12-13T07:38:16.329Z,25.80
2022-12-13T07:46:39.238Z,12.30
2022-12-13T07:55:02.415Z,16.30
2022-12-13T08:03:26.596Z,17.70
2022-12-13T08:11:49.797Z,16.00
2022-12-13T08:20:12.850Z,12.20
2022-12-13T08:28:46.826Z,13.40
2022-12-13T08:37:09.981Z,11.90
2022-12-13T08:45:34.385Z,14.80
2022-12-13T08:54:10.953Z,17.50
2022-12-13T09:02:37.700Z,13.70
2022-12-13T09:11:10.668Z,11.40
2022-12-13T09:19:43.653Z,15.40
2022-12-13T09:28:08.656Z,292.00
2022-12-13T09:36:31.591Z,242.50
2022-12-13T09:45:02.317Z,85.30
2022-12-13T09:53:33.917Z,52.50
2022-12-13T10:02:04.036Z,34.00
2022-12-13T10:10:27.251Z,24.30
2022-12-13T10:18:50.357Z,22.00
2022-12-13T10:27:16.336Z,21.80
2022-12-13T10:35:41.174Z,40.80
2022-12-13T10:44:07.211Z,28.00
2022-12-13T10:52:43.544Z,17.80
2022-12-13T11:01:21.451Z,52.90
2022-12-13T11:09:44.371Z,25.20
2022-12-13T11:18:24.764Z,16.00
2022-12-13T11:26:59.079Z,12.30
2022-12-13T11:35:26.451Z,14.20
2022-12-13T11:44:04.259Z,14.30
2022-12-13T11:52:30.123Z,14.60
2022-12-13T12:01:04.294Z,21.40
2022-12-13T12:09:29.223Z,71.80
2022-12-13T12:17:52.144Z,305.60
2022-12-13T12:26:24.027Z,128.20
2022-12-13T12:35:17.086Z,100.10
2022-12-13T12:43:42.186Z,31.00
2022-12-13T12:52:19.183Z,47.20
2022-12-13T13:00:54.541Z,133.70
2022-12-13T13:09:24.534Z,47.10
2022-12-13T13:17:48.611Z,56.80
2022-12-13T13:26:30.355Z,194.80
2022-12-13T13:34:55.748Z,116.10
2022-12-13T13:43:32.861Z,70.00
2022-12-13T13:52:30.468Z,90.90
2022-12-13T14:01:24.256Z,185.00
2022-12-13T14:10:06.141Z,51.70
2022-12-13T14:18:53.690Z,78.70
2022-12-13T14:27:58.097Z,32.60
2022-12-13T14:36:35.826Z,18.30
2022-12-13T14:45:29.867Z,14.40
2022-12-13T14:53:53.841Z,15.20
2022-12-13T15:02:31.070Z,22.00
2022-12-13T15:10:59.072Z,20.60
2022-12-13T15:19:30.776Z,15.50
2022-12-13T15:28:01.224Z,22.50
2022-12-13T15:36:27.003Z,293.80
2022-12-13T15:44:59.528Z,118.90
2022-12-13T15:53:27.373Z,234.30
2022-12-13T16:01:56.485Z,50.60
2022-12-13T16:10:21.978Z,138.90
2022-12-13T16:18:51.088Z,118.20
2022-12-13T16:27:14.119Z,183.60
2022-12-13T16:35:37.147Z,44.70
2022-12-13T16:44:03.467Z,79.20
2022-12-13T16:52:26.287Z,33.80
2022-12-13T17:00:49.291Z,35.70
2022-12-13T17:09:12.331Z,36.40
2022-12-13T17:17:43.662Z,128.60
2022-12-13T17:26:09.403Z,80.50
2022-12-13T17:34:32.309Z,47.70
2022-12-13T17:42:55.201Z,49.60
2022-12-13T17:51:18.334Z,49.70
2022-12-13T17:59:43.122Z,49.40
2022-12-13T18:08:06.167Z,30.00
2022-12-13T18:16:36.226Z,58.40
2022-12-13T18:33:25.018Z,389.50
2022-12-13T18:41:48.150Z,60.50
2022-12-13T18:50:11.074Z,173.10
2022-12-13T18:58:35.333Z,88.40
2022-12-13T19:06:58.895Z,75.90
2022-12-13T19:15:22.080Z,49.10
2022-12-13T19:23:49.509Z,47.40
2022-12-13T19:32:14.797Z,90.80
2022-12-13T19:40:42.403Z,111.40
2022-12-13T19:49:08.529Z,105.90
2022-12-13T19:57:34.623Z,138.40
2022-12-13T20:05:59.359Z,169.70
2022-12-13T20:14:22.249Z,56.30
2022-12-13T20:22:45.424Z,81.10
2022-12-13T20:31:14.414Z,89.80
2022-12-13T20:39:37.354Z,90.30
2022-12-13T20:48:00.355Z,59.50
2022-12-13T20:56:34.391Z,43.90
2022-12-13T21:04:57.215Z,67.40
2022-12-13T21:13:20.083Z,1263.00
2022-12-13T21:21:43.422Z,983.70
2022-12-13T21:30:07.283Z,837.40
2022-12-13T21:38:30.601Z,600.40
2022-12-13T21:55:43.022Z,504.80
2022-12-13T22:04:07.168Z,171.60
2022-12-13T22:12:39.450Z,61.20
2022-12-13T22:21:02.214Z,47.80
2022-12-13T22:29:25.382Z,51.80
2022-12-13T22:37:50.078Z,61.00
2022-12-13T22:46:16.555Z,47.30
2022-12-13T22:54:39.407Z,51.20
2022-12-13T23:03:02.886Z,44.70
2022-12-13T23:11:45.879Z,44.50
2022-12-13T23:20:09.418Z,38.70
2022-12-13T23:28:32.404Z,40.70
2022-12-13T23:36:55.186Z,41.30
2022-12-13T23:45:18.030Z,40.80
2022-12-13T23:53:41.396Z,40.30
